sensor_id;sensor_type;location;lat;lon;timestamp;temperature;humidity
10010;DHT22;5044;48.652;9.250;2024-03-23T01:02:42;8.40;99.90
10010;DHT22;5044;48.652;9.250;2024-03-23T01:05:11;8.40;99.90
10010;DHT22;5044;48.652;9.250;2024-03-23T01:07:38;8.40;99.90
10010;DHT22;5044;48.652;9.250;2024-03-23T01:10:09;8.40;99.90
10010;DHT22;5044;48.652;9.250;2024-03-23T01:43:39;8.40;99.90
10010;DHT22;5044;48.652;9.250;2024-03-23T01:46:07;8.80;99.90
10010;DHT22;5044;48.652;9.250;2024-03-23T01:48:33;8.90;99.90
10010;DHT22;5044;48.652;9.250;2024-03-23T02:16:57;10.10;99.90
10010;DHT22;5044;48.652;9.250;2024-03-23T02:19:25;10.10;99.90
10010;DHT22;5044;48.652;9.250;2024-03-23T02:21:51;10.20;99.90
10010;DHT22;5044;48.652;9.250;2024-03-23T02:24:22;10.30;99.90
10010;DHT22;5044;48.652;9.250;2024-03-23T02:26:48;10.40;99.90
10010;DHT22;5044;48.652;9.250;2024-03-23T02:29:17;10.30;99.90
10010;DHT22;5044;48.652;9.250;2024-03-23T02:31:46;10.30;99.90
10010;DHT22;5044;48.652;9.250;2024-03-23T02:34:14;10.40;99.90
10010;DHT22;5044;48.652;9.250;2024-03-23T02:36:43;10.30;99.90
10010;DHT22;5044;48.652;9.250;2024-03-23T02:39:13;10.50;99.90
10010;DHT22;5044;48.652;9.250;2024-03-23T02:41:43;10.40;99.90
10010;DHT22;5044;48.652;9.250;2024-03-23T02:44:11;10.30;99.90
10010;DHT22;5044;48.652;9.250;2024-03-23T02:46:40;10.40;99.90
10010;DHT22;5044;48.652;9.250;2024-03-23T02:49:08;10.40;99.90
10010;DHT22;5044;48.652;9.250;2024-03-23T02:51:37;10.40;99.90
10010;DHT22;5044;48.652;9.250;2024-03-23T02:54:04;10.60;99.90
10010;DHT22;5044;48.652;9.250;2024-03-23T02:56:34;10.50;99.90
10010;DHT22;5044;48.652;9.250;2024-03-23T02:59:02;10.50;99.90
10010;DHT22;5044;48.652;9.250;2024-03-23T03:01:30;10.70;99.90
10010;DHT22;5044;48.652;9.250;2024-03-23T03:03:58;10.60;99.90
10010;DHT22;5044;48.652;9.250;2024-03-23T03:06:29;10.60;99.90
10010;DHT22;5044;48.652;9.250;2024-03-23T03:08:57;10.70;99.90
10010;DHT22;5044;48.652;9.250;2024-03-23T03:11:24;10.70;99.90
10010;DHT22;5044;48.652;9.250;2024-03-23T03:13:50;10.60;99.90
10010;DHT22;5044;48.652;9.250;2024-03-23T03:16:21;10.70;99.90
10010;DHT22;5044;48.652;9.250;2024-03-23T03:18:47;10.90;99.90
10010;DHT22;5044;48.652;9.250;2024-03-23T03:21:19;10.60;99.90
10010;DHT22;5044;48.652;9.250;2024-03-23T03:23:45;10.60;99.90
10010;DHT22;5044;48.652;9.250;2024-03-23T03:26:17;10.50;99.90
10010;DHT22;5044;48.652;9.250;2024-03-23T03:28:43;10.50;99.90
10010;DHT22;5044;48.652;9.250;2024-03-23T03:31:14;10.40;99.90
10010;DHT22;5044;48.652;9.250;2024-03-23T03:33:42;10.40;99.90
10010;DHT22;5044;48.652;9.250;2024-03-23T03:36:10;10.90;99.90
10010;DHT22;5044;48.652;9.250;2024-03-23T03:38:38;10.90;99.90
10010;DHT22;5044;48.652;9.250;2024-03-23T03:41:05;10.80;99.90
10010;DHT22;5044;48.652;9.250;2024-03-23T03:43:32;10.80;99.90
10010;DHT22;5044;48.652;9.250;2024-03-23T03:46:02;10.80;99.90
10010;DHT22;5044;48.652;9.250;2024-03-23T03:48:29;10.70;99.90
10010;DHT22;5044;48.652;9.250;2024-03-23T03:50:58;10.70;99.90
10010;DHT22;5044;48.652;9.250;2024-03-23T03:53:27;10.60;99.90
10010;DHT22;5044;48.652;9.250;2024-03-23T03:56:05;10.50;99.90
10010;DHT22;5044;48.652;9.250;2024-03-23T03:58:32;10.40;99.90
10010;DHT22;5044;48.652;9.250;2024-03-23T04:01:03;10.30;99.90
10010;DHT22;5044;48.652;9.250;2024-03-23T04:03:29;10.30;99.90
10010;DHT22;5044;48.652;9.250;2024-03-23T04:06:00;10.20;99.90
10010;DHT22;5044;48.652;9.250;2024-03-23T04:08:33;10.00;99.90
10010;DHT22;5044;48.652;9.250;2024-03-23T04:11:02;10.00;99.90
10010;DHT22;5044;48.652;9.250;2024-03-23T04:13:29;9.90;99.90
10010;DHT22;5044;48.652;9.250;2024-03-23T04:16:03;9.90;99.90
10010;DHT22;5044;48.652;9.250;2024-03-23T04:18:32;9.90;99.90
10010;DHT22;5044;48.652;9.250;2024-03-23T04:21:02;9.80;99.90
10010;DHT22;5044;48.652;9.250;2024-03-23T04:23:29;9.80;99.90
10010;DHT22;5044;48.652;9.250;2024-03-23T04:25:57;9.80;99.90
10010;DHT22;5044;48.652;9.250;2024-03-23T04:28:30;9.80;99.90
10010;DHT22;5044;48.652;9.250;2024-03-23T04:31:03;9.80;99.90
10010;DHT22;5044;48.652;9.250;2024-03-23T04:33:33;9.80;99.90
10010;DHT22;5044;48.652;9.250;2024-03-23T04:36:03;9.80;99.90
10010;DHT22;5044;48.652;9.250;2024-03-23T04:38:31;9.80;99.90
10010;DHT22;5044;48.652;9.250;2024-03-23T04:40:59;9.70;99.90
10010;DHT22;5044;48.652;9.250;2024-03-23T04:43:27;9.70;99.90
10010;DHT22;5044;48.652;9.250;2024-03-23T04:45:58;9.70;99.90
10010;DHT22;5044;48.652;9.250;2024-03-23T04:48:28;9.60;99.90
10010;DHT22;5044;48.652;9.250;2024-03-23T04:50:58;9.70;99.90
10010;DHT22;5044;48.652;9.250;2024-03-23T04:53:33;9.70;99.90
10010;DHT22;5044;48.652;9.250;2024-03-23T04:56:00;9.80;99.90
10010;DHT22;5044;48.652;9.250;2024-03-23T04:58:30;9.60;99.90
10010;DHT22;5044;48.652;9.250;2024-03-23T05:00:57;9.70;99.90
10010;DHT22;5044;48.652;9.250;2024-03-23T05:03:30;9.90;99.90
10010;DHT22;5044;48.652;9.250;2024-03-23T05:05:57;10.10;99.90
10010;DHT22;5044;48.652;9.250;2024-03-23T05:08:24;10.30;99.90
10010;DHT22;5044;48.652;9.250;2024-03-23T05:10:51;10.30;99.90
10010;DHT22;5044;48.652;9.250;2024-03-23T05:13:18;9.50;99.90
10010;DHT22;5044;48.652;9.250;2024-03-23T05:15:44;9.40;99.90
10010;DHT22;5044;48.652;9.250;2024-03-23T05:18:11;9.30;99.90
10010;DHT22;5044;48.652;9.250;2024-03-23T05:20:37;9.20;99.90
10010;DHT22;5044;48.652;9.250;2024-03-23T05:23:04;9.10;99.90
10010;DHT22;5044;48.652;9.250;2024-03-23T05:25:32;9.10;99.90
10010;DHT22;5044;48.652;9.250;2024-03-23T05:30:30;9.10;99.90
10010;DHT22;5044;48.652;9.250;2024-03-23T05:33:00;9.10;99.90
10010;DHT22;5044;48.652;9.250;2024-03-23T05:35:26;9.00;99.90
10010;DHT22;5044;48.652;9.250;2024-03-23T05:37:59;9.00;99.90
10010;DHT22;5044;48.652;9.250;2024-03-23T05:40:26;9.00;99.90
10010;DHT22;5044;48.652;9.250;2024-03-23T05:42:54;9.00;99.90
10010;DHT22;5044;48.652;9.250;2024-03-23T05:45:21;8.90;99.90
10010;DHT22;5044;48.652;9.250;2024-03-23T05:47:49;8.90;99.90
10010;DHT22;5044;48.652;9.250;2024-03-23T05:50:16;9.30;99.90
10010;DHT22;5044;48.652;9.250;2024-03-23T05:52:44;9.00;99.90
10010;DHT22;5044;48.652;9.250;2024-03-23T05:55:10;8.90;99.90
10010;DHT22;5044;48.652;9.250;2024-03-23T05:57:41;8.90;99.90
10010;DHT22;5044;48.652;9.250;2024-03-23T06:00:10;8.80;99.90
10010;DHT22;5044;48.652;9.250;2024-03-23T06:02:43;8.80;99.90
10010;DHT22;5044;48.652;9.250;2024-03-23T06:05:13;9.00;99.90
10010;DHT22;5044;48.652;9.250;2024-03-23T06:07:40;8.80;99.90
10010;DHT22;5044;48.652;9.250;2024-03-23T06:10:09;8.70;99.90
10010;DHT22;5044;48.652;9.250;2024-03-23T06:12:36;8.70;99.90
10010;DHT22;5044;48.652;9.250;2024-03-23T06:15:04;8.60;99.90
10010;DHT22;5044;48.652;9.250;2024-03-23T06:17:32;8.60;99.90
10010;DHT22;5044;48.652;9.250;2024-03-23T06:20:00;8.60;99.90
10010;DHT22;5044;48.652;9.250;2024-03-23T06:22:28;8.50;99.90
10010;DHT22;5044;48.652;9.250;2024-03-23T06:24:56;8.40;99.90
10010;DHT22;5044;48.652;9.250;2024-03-23T06:27:37;8.30;99.90
10010;DHT22;5044;48.652;9.250;2024-03-23T06:30:07;8.30;99.90
10010;DHT22;5044;48.652;9.250;2024-03-23T06:32:35;8.30;99.90
10010;DHT22;5044;48.652;9.250;2024-03-23T06:35:09;8.20;99.90
10010;DHT22;5044;48.652;9.250;2024-03-23T06:37:39;8.20;99.90
10010;DHT22;5044;48.652;9.250;2024-03-23T06:40:11;8.50;99.90
10010;DHT22;5044;48.652;9.250;2024-03-23T06:42:40;8.20;99.90
10010;DHT22;5044;48.652;9.250;2024-03-23T06:45:06;8.20;99.90
10010;DHT22;5044;48.652;9.250;2024-03-23T06:47:33;8.20;99.90
10010;DHT22;5044;48.652;9.250;2024-03-23T06:50:00;8.40;99.90
10010;DHT22;5044;48.652;9.250;2024-03-23T06:52:30;8.30;99.90
10010;DHT22;5044;48.652;9.250;2024-03-23T06:54:59;8.20;99.90
10010;DHT22;5044;48.652;9.250;2024-03-23T06:57:37;8.20;99.90
10010;DHT22;5044;48.652;9.250;2024-03-23T07:00:04;8.10;99.90
10010;DHT22;5044;48.652;9.250;2024-03-23T07:02:35;8.10;99.90
10010;DHT22;5044;48.652;9.250;2024-03-23T07:05:03;8.00;99.90
10010;DHT22;5044;48.652;9.250;2024-03-23T07:07:32;8.00;99.90
10010;DHT22;5044;48.652;9.250;2024-03-23T07:09:59;7.90;99.90
10010;DHT22;5044;48.652;9.250;2024-03-23T07:12:27;7.90;99.90
10010;DHT22;5044;48.652;9.250;2024-03-23T07:14:52;8.00;99.90
10010;DHT22;5044;48.652;9.250;2024-03-23T07:17:21;8.00;99.90
10010;DHT22;5044;48.652;9.250;2024-03-23T07:20:02;8.00;99.90
10010;DHT22;5044;48.652;9.250;2024-03-23T07:22:42;8.00;99.90
10010;DHT22;5044;48.652;9.250;2024-03-23T07:25:12;8.00;99.90
10010;DHT22;5044;48.652;9.250;2024-03-23T07:27:41;8.00;99.90
10010;DHT22;5044;48.652;9.250;2024-03-23T07:30:47;8.30;99.90
10010;DHT22;5044;48.652;9.250;2024-03-23T07:38:26;8.90;99.90
10010;DHT22;5044;48.652;9.250;2024-03-23T07:41:06;9.00;99.90
10010;DHT22;5044;48.652;9.250;2024-03-23T07:43:37;8.80;99.90
10010;DHT22;5044;48.652;9.250;2024-03-23T07:46:09;8.50;99.90
10010;DHT22;5044;48.652;9.250;2024-03-23T07:48:46;8.40;99.90
10010;DHT22;5044;48.652;9.250;2024-03-23T07:51:30;8.60;99.90
10010;DHT22;5044;48.652;9.250;2024-03-23T07:54:12;8.40;99.90
10010;DHT22;5044;48.652;9.250;2024-03-23T07:56:55;8.30;99.90
10010;DHT22;5044;48.652;9.250;2024-03-23T07:59:20;8.40;99.90
10010;DHT22;5044;48.652;9.250;2024-03-23T08:01:59;8.50;99.90
10010;DHT22;5044;48.652;9.250;2024-03-23T08:04:35;8.30;99.90
10010;DHT22;5044;48.652;9.250;2024-03-23T08:07:29;8.30;99.90
10010;DHT22;5044;48.652;9.250;2024-03-23T08:09:55;8.40;99.90
10010;DHT22;5044;48.652;9.250;2024-03-23T08:12:28;8.30;99.90
10010;DHT22;5044;48.652;9.250;2024-03-23T08:15:20;8.40;99.90
10010;DHT22;5044;48.652;9.250;2024-03-23T08:17:48;8.20;99.90
10010;DHT22;5044;48.652;9.250;2024-03-23T08:20:22;8.10;99.90
10010;DHT22;5044;48.652;9.250;2024-03-23T08:22:50;8.20;99.90
10010;DHT22;5044;48.652;9.250;2024-03-23T08:25:32;8.20;99.90
10010;DHT22;5044;48.652;9.250;2024-03-23T08:28:01;7.90;99.90
10010;DHT22;5044;48.652;9.250;2024-03-23T08:30:28;8.20;99.90
10010;DHT22;5044;48.652;9.250;2024-03-23T08:32:56;8.10;99.90
10010;DHT22;5044;48.652;9.250;2024-03-23T08:35:22;7.90;99.90
10010;DHT22;5044;48.652;9.250;2024-03-23T08:37:49;8.00;99.90
10010;DHT22;5044;48.652;9.250;2024-03-23T08:40:15;8.30;99.90
10010;DHT22;5044;48.652;9.250;2024-03-23T08:42:42;8.00;99.90
10010;DHT22;5044;48.652;9.250;2024-03-23T08:45:10;8.00;99.90
10010;DHT22;5044;48.652;9.250;2024-03-23T08:47:37;7.90;99.90
10010;DHT22;5044;48.652;9.250;2024-03-23T08:50:04;7.80;99.90
10010;DHT22;5044;48.652;9.250;2024-03-23T08:52:32;7.70;99.90
10010;DHT22;5044;48.652;9.250;2024-03-23T08:54:58;7.60;99.90
10010;DHT22;5044;48.652;9.250;2024-03-23T08:57:26;7.70;99.90
10010;DHT22;5044;48.652;9.250;2024-03-23T08:59:52;7.60;99.90
10010;DHT22;5044;48.652;9.250;2024-03-23T09:02:21;7.60;99.90
10010;DHT22;5044;48.652;9.250;2024-03-23T09:04:47;7.70;99.90
10010;DHT22;5044;48.652;9.250;2024-03-23T09:07:16;7.90;99.90
10010;DHT22;5044;48.652;9.250;2024-03-23T09:09:41;7.80;98.80
10010;DHT22;5044;48.652;9.250;2024-03-23T09:12:11;7.70;97.10
10010;DHT22;5044;48.652;9.250;2024-03-23T09:14:37;7.70;97.80
10010;DHT22;5044;48.652;9.250;2024-03-23T09:17:03;7.70;97.90
10010;DHT22;5044;48.652;9.250;2024-03-23T09:19:47;7.70;95.40
10010;DHT22;5044;48.652;9.250;2024-03-23T09:22:14;7.80;94.90
10010;DHT22;5044;48.652;9.250;2024-03-23T09:24:40;7.60;96.00
10010;DHT22;5044;48.652;9.250;2024-03-23T09:27:08;7.60;99.30
10010;DHT22;5044;48.652;9.250;2024-03-23T09:29:33;7.80;99.90
10010;DHT22;5044;48.652;9.250;2024-03-23T09:32:01;8.20;98.80
10010;DHT22;5044;48.652;9.250;2024-03-23T09:34:27;8.20;99.80
10010;DHT22;5044;48.652;9.250;2024-03-23T09:36:55;8.40;97.00
10010;DHT22;5044;48.652;9.250;2024-03-23T09:39:21;8.20;98.80
10010;DHT22;5044;48.652;9.250;2024-03-23T09:41:48;8.00;96.30
10010;DHT22;5044;48.652;9.250;2024-03-23T09:44:14;8.10;99.30
10010;DHT22;5044;48.652;9.250;2024-03-23T09:46:41;8.70;96.70
10010;DHT22;5044;48.652;9.250;2024-03-23T09:49:07;9.30;92.80
10010;DHT22;5044;48.652;9.250;2024-03-23T09:51:36;9.20;89.70
10010;DHT22;5044;48.652;9.250;2024-03-23T09:54:07;9.00;92.40
10010;DHT22;5044;48.652;9.250;2024-03-23T09:56:36;9.30;91.30
10010;DHT22;5044;48.652;9.250;2024-03-23T09:59:04;8.40;87.10
10010;DHT22;5044;48.652;9.250;2024-03-23T10:01:32;8.20;90.30
10010;DHT22;5044;48.652;9.250;2024-03-23T10:03:59;8.50;94.30
10010;DHT22;5044;48.652;9.250;2024-03-23T10:06:26;8.10;93.00
10010;DHT22;5044;48.652;9.250;2024-03-23T10:08:57;8.20;92.50
10010;DHT22;5044;48.652;9.250;2024-03-23T10:11:29;8.10;90.80
10010;DHT22;5044;48.652;9.250;2024-03-23T13:08:21;9.00;97.80
10010;DHT22;5044;48.652;9.250;2024-03-23T13:10:51;8.70;99.20
10010;DHT22;5044;48.652;9.250;2024-03-23T13:13:17;8.90;99.50
10010;DHT22;5044;48.652;9.250;2024-03-23T13:15:49;8.90;98.80
10010;DHT22;5044;48.652;9.250;2024-03-23T13:18:15;8.70;98.60
10010;DHT22;5044;48.652;9.250;2024-03-23T13:20:47;9.10;98.90
10010;DHT22;5044;48.652;9.250;2024-03-23T13:23:14;9.10;97.40
10010;DHT22;5044;48.652;9.250;2024-03-23T13:25:50;8.80;95.90
10010;DHT22;5044;48.652;9.250;2024-03-23T13:28:18;8.70;97.10
10010;DHT22;5044;48.652;9.250;2024-03-23T13:30:50;8.50;97.20
10010;DHT22;5044;48.652;9.250;2024-03-23T13:33:16;8.50;96.90
10010;DHT22;5044;48.652;9.250;2024-03-23T13:35:49;7.90;92.20
10010;DHT22;5044;48.652;9.250;2024-03-23T13:38:15;7.70;86.10
10010;DHT22;5044;48.652;9.250;2024-03-23T13:40:51;8.00;82.10
10010;DHT22;5044;48.652;9.250;2024-03-23T13:43:17;8.80;83.10
10010;DHT22;5044;48.652;9.250;2024-03-23T13:45:44;8.50;77.40
10010;DHT22;5044;48.652;9.250;2024-03-23T13:48:11;9.20;81.50
10010;DHT22;5044;48.652;9.250;2024-03-23T13:50:37;9.30;79.40
10010;DHT22;5044;48.652;9.250;2024-03-23T13:53:04;9.20;71.40
10010;DHT22;5044;48.652;9.250;2024-03-23T13:55:33;9.40;74.70
10010;DHT22;5044;48.652;9.250;2024-03-23T13:58:04;9.20;71.70
10010;DHT22;5044;48.652;9.250;2024-03-23T14:00:30;9.60;75.80
10010;DHT22;5044;48.652;9.250;2024-03-23T14:02:58;9.70;71.60
10010;DHT22;5044;48.652;9.250;2024-03-23T14:05:24;9.90;75.00
10010;DHT22;5044;48.652;9.250;2024-03-23T14:07:51;9.40;73.40
10010;DHT22;5044;48.652;9.250;2024-03-23T14:10:16;9.70;73.00
10010;DHT22;5044;48.652;9.250;2024-03-23T14:12:43;10.10;74.70
10010;DHT22;5044;48.652;9.250;2024-03-23T14:15:11;10.30;72.70
10010;DHT22;5044;48.652;9.250;2024-03-23T14:17:37;9.60;73.80
10010;DHT22;5044;48.652;9.250;2024-03-23T14:20:09;9.80;75.00
10010;DHT22;5044;48.652;9.250;2024-03-23T14:22:38;9.40;73.80
10010;DHT22;5044;48.652;9.250;2024-03-23T14:25:08;9.00;74.70
10010;DHT22;5044;48.652;9.250;2024-03-23T14:27:37;8.80;78.60
10010;DHT22;5044;48.652;9.250;2024-03-23T14:30:04;7.70;95.00
10010;DHT22;5044;48.652;9.250;2024-03-23T14:32:33;7.60;99.90
10010;DHT22;5044;48.652;9.250;2024-03-23T14:35:00;7.90;99.90
10010;DHT22;5044;48.652;9.250;2024-03-23T14:37:26;8.50;99.90
10010;DHT22;5044;48.652;9.250;2024-03-23T14:39:52;8.60;99.90
10010;DHT22;5044;48.652;9.250;2024-03-23T14:42:19;8.90;99.90
10010;DHT22;5044;48.652;9.250;2024-03-23T14:44:45;9.20;99.90
10010;DHT22;5044;48.652;9.250;2024-03-23T14:47:12;9.20;95.70
10010;DHT22;5044;48.652;9.250;2024-03-23T14:49:39;8.90;98.20
10010;DHT22;5044;48.652;9.250;2024-03-23T14:52:06;8.90;93.00
10010;DHT22;5044;48.652;9.250;2024-03-23T14:54:32;9.00;91.40
10010;DHT22;5044;48.652;9.250;2024-03-23T14:57:00;8.60;89.30
10010;DHT22;5044;48.652;9.250;2024-03-23T14:59:26;8.60;94.70
10010;DHT22;5044;48.652;9.250;2024-03-23T15:01:53;8.10;89.30
10010;DHT22;5044;48.652;9.250;2024-03-23T15:04:19;7.90;92.80
10010;DHT22;5044;48.652;9.250;2024-03-23T15:06:47;7.60;82.10
10010;DHT22;5044;48.652;9.250;2024-03-23T15:09:15;7.20;88.70
10010;DHT22;5044;48.652;9.250;2024-03-23T15:11:43;7.10;89.20
10010;DHT22;5044;48.652;9.250;2024-03-23T15:14:09;6.90;92.70
10010;DHT22;5044;48.652;9.250;2024-03-23T15:16:36;6.80;95.90
10010;DHT22;5044;48.652;9.250;2024-03-23T15:19:02;6.90;98.60
10010;DHT22;5044;48.652;9.250;2024-03-23T15:21:31;7.00;98.40
10010;DHT22;5044;48.652;9.250;2024-03-23T15:23:58;7.00;97.50
10010;DHT22;5044;48.652;9.250;2024-03-23T15:26:25;7.20;99.90
10010;DHT22;5044;48.652;9.250;2024-03-23T15:28:51;7.30;99.90
10010;DHT22;5044;48.652;9.250;2024-03-23T15:31:36;7.00;99.90
10010;DHT22;5044;48.652;9.250;2024-03-23T15:34:05;7.30;99.90
10010;DHT22;5044;48.652;9.250;2024-03-23T15:36:35;7.40;97.60
10010;DHT22;5044;48.652;9.250;2024-03-23T15:39:05;7.60;97.30
10010;DHT22;5044;48.652;9.250;2024-03-23T15:41:32;7.70;98.10
10010;DHT22;5044;48.652;9.250;2024-03-23T15:43:59;7.90;96.80
10010;DHT22;5044;48.652;9.250;2024-03-23T15:46:28;7.40;97.10
10010;DHT22;5044;48.652;9.250;2024-03-23T15:48:56;7.20;98.60
10010;DHT22;5044;48.652;9.250;2024-03-23T15:51:29;7.40;99.40
10010;DHT22;5044;48.652;9.250;2024-03-23T15:54:00;7.50;99.90
10010;DHT22;5044;48.652;9.250;2024-03-23T15:56:30;7.50;98.30
10010;DHT22;5044;48.652;9.250;2024-03-23T15:58:56;7.40;99.40
10010;DHT22;5044;48.652;9.250;2024-03-23T16:01:28;7.70;99.90
10010;DHT22;5044;48.652;9.250;2024-03-23T16:03:54;8.00;99.90
10010;DHT22;5044;48.652;9.250;2024-03-23T16:06:20;7.90;99.90
10010;DHT22;5044;48.652;9.250;2024-03-23T16:08:46;7.90;99.90
10010;DHT22;5044;48.652;9.250;2024-03-23T16:11:13;8.10;99.90
10010;DHT22;5044;48.652;9.250;2024-03-23T16:13:40;7.50;99.90
10010;DHT22;5044;48.652;9.250;2024-03-23T16:16:08;7.50;99.90
10010;DHT22;5044;48.652;9.250;2024-03-23T16:18:36;7.50;99.90
10010;DHT22;5044;48.652;9.250;2024-03-23T16:21:05;7.40;99.90
10010;DHT22;5044;48.652;9.250;2024-03-23T16:23:32;7.30;99.90
10010;DHT22;5044;48.652;9.250;2024-03-23T16:25:59;7.30;99.90
10010;DHT22;5044;48.652;9.250;2024-03-23T16:28:27;7.20;99.90
10010;DHT22;5044;48.652;9.250;2024-03-23T16:31:00;7.10;99.90
10010;DHT22;5044;48.652;9.250;2024-03-23T16:33:26;7.20;99.90
10010;DHT22;5044;48.652;9.250;2024-03-23T16:35:57;7.30;99.90
10010;DHT22;5044;48.652;9.250;2024-03-23T16:38:24;7.20;99.30
10010;DHT22;5044;48.652;9.250;2024-03-23T16:40:57;6.80;97.60
10010;DHT22;5044;48.652;9.250;2024-03-23T16:43:25;6.70;98.00
10010;DHT22;5044;48.652;9.250;2024-03-23T16:46:04;6.70;98.00
10010;DHT22;5044;48.652;9.250;2024-03-23T16:48:30;6.70;98.40
10010;DHT22;5044;48.652;9.250;2024-03-23T16:50:59;6.70;97.30
10010;DHT22;5044;48.652;9.250;2024-03-23T16:53:26;6.70;98.80
10010;DHT22;5044;48.652;9.250;2024-03-23T16:55:55;6.60;98.40
10010;DHT22;5044;48.652;9.250;2024-03-23T16:58:24;6.50;99.70
10010;DHT22;5044;48.652;9.250;2024-03-23T17:00:56;6.50;98.80
10010;DHT22;5044;48.652;9.250;2024-03-23T17:03:27;6.60;99.20
10010;DHT22;5044;48.652;9.250;2024-03-23T17:06:03;6.40;99.30
10010;DHT22;5044;48.652;9.250;2024-03-23T17:08:30;6.40;99.90
10010;DHT22;5044;48.652;9.250;2024-03-23T17:10:58;6.30;99.90
10010;DHT22;5044;48.652;9.250;2024-03-23T17:13:25;6.20;99.90
10010;DHT22;5044;48.652;9.250;2024-03-23T17:15:52;6.20;99.90
10010;DHT22;5044;48.652;9.250;2024-03-23T17:18:18;6.10;99.90
10010;DHT22;5044;48.652;9.250;2024-03-23T17:20:46;6.00;99.90
10010;DHT22;5044;48.652;9.250;2024-03-23T17:23:12;6.00;99.90
10010;DHT22;5044;48.652;9.250;2024-03-23T17:25:39;6.00;99.90
10010;DHT22;5044;48.652;9.250;2024-03-23T17:28:06;6.10;99.90
10010;DHT22;5044;48.652;9.250;2024-03-23T17:30:33;6.00;99.90
10010;DHT22;5044;48.652;9.250;2024-03-23T17:33:00;5.90;99.90
10010;DHT22;5044;48.652;9.250;2024-03-23T17:35:26;5.90;99.90
10010;DHT22;5044;48.652;9.250;2024-03-23T17:37:59;5.80;99.90
10010;DHT22;5044;48.652;9.250;2024-03-23T17:40:27;5.90;99.90
10010;DHT22;5044;48.652;9.250;2024-03-23T17:42:59;5.80;99.90
10010;DHT22;5044;48.652;9.250;2024-03-23T17:45:29;5.80;99.90
10010;DHT22;5044;48.652;9.250;2024-03-23T17:47:57;5.90;99.90
10010;DHT22;5044;48.652;9.250;2024-03-23T17:50:23;5.90;99.90
10010;DHT22;5044;48.652;9.250;2024-03-23T17:52:50;6.00;99.90
10010;DHT22;5044;48.652;9.250;2024-03-23T17:55:20;5.90;99.90
10010;DHT22;5044;48.652;9.250;2024-03-23T17:57:50;5.60;99.90
10010;DHT22;5044;48.652;9.250;2024-03-23T18:00:16;4.60;99.90
10010;DHT22;5044;48.652;9.250;2024-03-23T18:02:45;3.90;99.90
10010;DHT22;5044;48.652;9.250;2024-03-23T18:05:11;3.70;99.90
10010;DHT22;5044;48.652;9.250;2024-03-23T18:07:38;3.60;99.90
10010;DHT22;5044;48.652;9.250;2024-03-23T18:10:04;3.90;99.90
10010;DHT22;5044;48.652;9.250;2024-03-23T18:12:32;3.90;99.90
10010;DHT22;5044;48.652;9.250;2024-03-23T18:14:58;4.00;99.90
10010;DHT22;5044;48.652;9.250;2024-03-23T18:17:27;3.90;99.90
10010;DHT22;5044;48.652;9.250;2024-03-23T18:19:55;3.80;99.90
10010;DHT22;5044;48.652;9.250;2024-03-23T18:22:26;3.90;99.90
10010;DHT22;5044;48.652;9.250;2024-03-23T18:24:54;3.90;99.90
10010;DHT22;5044;48.652;9.250;2024-03-23T18:27:27;3.80;99.90
10010;DHT22;5044;48.652;9.250;2024-03-23T18:29:54;3.80;99.90
10010;DHT22;5044;48.652;9.250;2024-03-23T18:32:21;3.70;99.90
10010;DHT22;5044;48.652;9.250;2024-03-23T18:34:47;3.70;99.90
10010;DHT22;5044;48.652;9.250;2024-03-23T18:37:14;3.60;99.90
10010;DHT22;5044;48.652;9.250;2024-03-23T18:39:40;3.60;99.90
